Time;durP1;ratioP1;P1;durP2;ratioP2;P2;SDS_P1;SDS_P2;PMS_P1;PMS_P2;Temp;Humidity;BMP_temperature;BMP_pressure;BME280_temperature;BME280_humidity;BME280_pressure;Samples;Min_cycle;Max_cycle;Signal;HPM_P1;HPM_P2
2023/04/19 00:01:51;;;;;;;;;;;10.70;99.90;;;;;;7324305;19;110338;-85
2023/04/19 00:04:19;;;;;;;;;;;10.70;99.90;;;;;;7328916;19;108508;-85
2023/04/19 00:06:46;;;;;;;;;;;10.70;99.90;;;;;;7326413;19;112085;-85
2023/04/19 00:09:13;;;;;;;;;;;10.60;99.90;;;;;;7335579;19;110318;-86
2023/04/19 00:11:46;;;;;;;;;;;10.60;99.90;;;;;;7328074;19;111117;-85
2023/04/19 00:14:13;;;;;;;;;;;10.50;99.90;;;;;;7328696;19;110209;-86
2023/04/19 00:16:40;;;;;;;;;;;10.60;99.90;;;;;;7328858;19;109792;-85
2023/04/19 00:19:08;;;;;;;;;;;10.60;99.90;;;;;;7327785;19;112294;-86
2023/04/19 00:21:35;;;;;;;;;;;10.70;99.90;;;;;;7328089;19;110177;-85
2023/04/19 00:24:02;;;;;;;;;;;10.70;99.90;;;;;;7330451;19;110006;-85
2023/04/19 00:26:29;;;;;;;;;;;10.60;99.90;;;;;;7326919;19;110528;-85
2023/04/19 00:28:56;;;;;;;;;;;10.50;99.90;;;;;;7327181;19;109459;-85
2023/04/19 00:31:23;;;;;;;;;;;10.50;99.90;;;;;;7334580;19;110839;-85
2023/04/19 00:33:50;;;;;;;;;;;10.40;99.90;;;;;;7325569;19;110330;-85
2023/04/19 00:36:19;;;;;;;;;;;10.40;99.90;;;;;;7336299;19;109774;-85
2023/04/19 00:38:49;;;;;;;;;;;10.40;99.90;;;;;;7333835;19;110748;-85
2023/04/19 00:41:16;;;;;;;;;;;10.30;99.90;;;;;;7336192;19;109994;-85
2023/04/19 00:43:46;;;;;;;;;;;10.30;99.90;;;;;;7337284;19;108838;-85
2023/04/19 00:46:14;;;;;;;;;;;10.20;99.90;;;;;;7337395;19;109084;-86
2023/04/19 00:48:41;;;;;;;;;;;10.20;99.90;;;;;;7334782;19;110468;-85
2023/04/19 00:51:09;;;;;;;;;;;10.20;99.90;;;;;;7336441;19;109939;-85
2023/04/19 00:53:42;;;;;;;;;;;10.20;99.90;;;;;;7335958;19;111403;-85
2023/04/19 00:56:09;;;;;;;;;;;10.20;99.90;;;;;;7337864;19;110479;-85
2023/04/19 00:58:37;;;;;;;;;;;10.20;99.90;;;;;;7338900;19;110035;-85
2023/04/19 01:01:05;;;;;;;;;;;10.20;99.90;;;;;;7336628;19;110851;-85
2023/04/19 01:03:33;;;;;;;;;;;10.30;99.90;;;;;;7335231;19;110028;-85
2023/04/19 01:06:01;;;;;;;;;;;10.20;99.90;;;;;;7332245;19;109231;-85
2023/04/19 01:08:28;;;;;;;;;;;10.30;99.90;;;;;;7328841;19;110794;-85
2023/04/19 01:10:55;;;;;;;;;;;10.40;99.90;;;;;;7339893;19;108730;-85
2023/04/19 01:13:22;;;;;;;;;;;10.40;99.90;;;;;;7343350;19;109174;-85
2023/04/19 01:15:50;;;;;;;;;;;10.40;99.90;;;;;;7331125;19;109762;-85
2023/04/19 01:18:18;;;;;;;;;;;10.40;99.90;;;;;;7336227;19;109308;-85
2023/04/19 01:20:45;;;;;;;;;;;10.50;99.90;;;;;;7333524;19;110266;-85
2023/04/19 01:23:12;;;;;;;;;;;10.50;99.90;;;;;;7334922;19;109240;-85
2023/04/19 01:25:39;;;;;;;;;;;10.50;99.90;;;;;;7334316;19;109086;-85
2023/04/19 01:28:06;;;;;;;;;;;10.60;99.90;;;;;;7328624;19;109998;-84
2023/04/19 01:30:35;;;;;;;;;;;10.70;99.90;;;;;;7329574;19;109638;-85
2023/04/19 01:33:02;;;;;;;;;;;10.70;99.90;;;;;;7337128;19;110819;-85
2023/04/19 01:35:29;;;;;;;;;;;10.70;99.90;;;;;;7342949;19;112905;-69
2023/04/19 01:37:56;;;;;;;;;;;10.70;99.90;;;;;;7336594;19;108450;-69
2023/04/19 01:40:24;;;;;;;;;;;10.70;99.90;;;;;;7337450;19;114682;-69
2023/04/19 01:42:51;;;;;;;;;;;10.80;99.90;;;;;;7336805;19;109919;-69
2023/04/19 01:45:18;;;;;;;;;;;10.90;99.90;;;;;;7337449;19;108629;-69
2023/04/19 01:47:45;;;;;;;;;;;11.00;99.90;;;;;;7334887;19;109288;-69
2023/04/19 01:50:12;;;;;;;;;;;10.90;99.90;;;;;;7337674;19;108681;-69
2023/04/19 01:52:39;;;;;;;;;;;10.90;99.90;;;;;;7337799;19;109580;-69
2023/04/19 01:55:06;;;;;;;;;;;10.90;99.90;;;;;;7337026;19;110186;-69
2023/04/19 01:57:34;;;;;;;;;;;11.00;99.90;;;;;;7343768;19;108258;-69
2023/04/19 02:00:01;;;;;;;;;;;10.90;99.90;;;;;;7335161;19;110284;-69
2023/04/19 02:02:28;;;;;;;;;;;11.00;99.90;;;;;;7340656;19;108560;-69
2023/04/19 02:04:56;;;;;;;;;;;11.10;99.90;;;;;;7338482;19;110030;-69
2023/04/19 02:07:23;;;;;;;;;;;11.10;99.90;;;;;;7335774;19;111000;-70
2023/04/19 02:09:50;;;;;;;;;;;11.00;99.90;;;;;;7338351;19;110591;-70
2023/04/19 02:12:17;;;;;;;;;;;11.10;99.90;;;;;;7336108;19;108651;-69
2023/04/19 02:14:44;;;;;;;;;;;11.10;99.90;;;;;;7337843;19;110197;-69
2023/04/19 02:17:11;;;;;;;;;;;11.10;99.90;;;;;;7337351;19;109237;-69
2023/04/19 02:19:38;;;;;;;;;;;11.20;99.90;;;;;;7337674;19;109106;-70
2023/04/19 02:22:05;;;;;;;;;;;11.20;99.90;;;;;;7337418;19;110852;-69
2023/04/19 02:24:32;;;;;;;;;;;11.20;99.90;;;;;;7337563;19;109567;-69
2023/04/19 02:27:00;;;;;;;;;;;11.20;99.90;;;;;;7333751;19;111042;-69
2023/04/19 02:29:27;;;;;;;;;;;11.20;99.90;;;;;;7337170;19;109424;-69
2023/04/19 02:31:54;;;;;;;;;;;11.30;99.90;;;;;;7335518;19;108630;-69
2023/04/19 02:34:21;;;;;;;;;;;11.30;99.90;;;;;;7336406;19;110940;-69
2023/04/19 02:36:48;;;;;;;;;;;11.30;99.90;;;;;;7333886;19;109002;-69
2023/04/19 02:39:16;;;;;;;;;;;11.30;99.90;;;;;;7334478;19;108433;-69
2023/04/19 02:41:43;;;;;;;;;;;11.30;99.90;;;;;;7339770;19;109442;-70
2023/04/19 02:44:10;;;;;;;;;;;11.30;99.90;;;;;;7340121;19;109314;-73
2023/04/19 02:46:37;;;;;;;;;;;11.30;99.90;;;;;;7329740;19;110523;-75
2023/04/19 02:49:04;;;;;;;;;;;11.30;99.90;;;;;;7337301;19;108657;-75
2023/04/19 02:51:31;;;;;;;;;;;11.30;99.90;;;;;;7335070;19;109530;-74
2023/04/19 02:53:58;;;;;;;;;;;11.30;99.90;;;;;;7335210;19;110725;-73
2023/04/19 02:56:25;;;;;;;;;;;11.40;99.90;;;;;;7338073;19;113461;-71
2023/04/19 02:58:53;;;;;;;;;;;11.40;99.90;;;;;;7333520;19;109176;-74
2023/04/19 03:01:20;;;;;;;;;;;11.40;99.90;;;;;;7333192;19;110192;-74
2023/04/19 03:03:47;;;;;;;;;;;11.50;99.90;;;;;;7343146;19;108248;-75
2023/04/19 03:06:15;;;;;;;;;;;11.50;99.90;;;;;;7333830;19;111636;-71
2023/04/19 03:08:42;;;;;;;;;;;11.60;99.90;;;;;;7331846;19;109474;-72
2023/04/19 03:11:14;;;;;;;;;;;11.60;99.90;;;;;;7332679;19;109377;-70
2023/04/19 03:13:41;;;;;;;;;;;11.60;99.90;;;;;;7334711;19;110128;-69
2023/04/19 03:16:08;;;;;;;;;;;11.70;99.90;;;;;;7336262;19;109761;-70
2023/04/19 03:18:36;;;;;;;;;;;11.60;99.90;;;;;;7334503;19;111413;-70
2023/04/19 03:21:03;;;;;;;;;;;11.60;99.90;;;;;;7335164;19;109105;-70
2023/04/19 03:23:34;;;;;;;;;;;11.60;99.90;;;;;;7341210;19;118848;-70
2023/04/19 03:26:01;;;;;;;;;;;11.60;99.90;;;;;;7330314;19;110787;-74
2023/04/19 03:28:28;;;;;;;;;;;11.70;99.90;;;;;;7335324;19;108350;-70
2023/04/19 03:30:55;;;;;;;;;;;11.70;99.90;;;;;;7332801;19;110346;-69
2023/04/19 03:33:22;;;;;;;;;;;11.70;99.90;;;;;;7335486;19;110496;-70
2023/04/19 03:35:50;;;;;;;;;;;11.70;99.90;;;;;;7336442;19;108410;-70
2023/04/19 03:38:17;;;;;;;;;;;11.70;99.90;;;;;;7334293;19;111012;-70
2023/04/19 03:40:44;;;;;;;;;;;11.70;99.90;;;;;;7336608;19;109226;-70
2023/04/19 03:43:11;;;;;;;;;;;11.70;99.90;;;;;;7332040;19;109090;-69
2023/04/19 03:45:38;;;;;;;;;;;11.70;99.90;;;;;;7341445;19;109757;-69
2023/04/19 03:48:05;;;;;;;;;;;11.60;99.90;;;;;;7335643;19;112482;-70
2023/04/19 03:50:32;;;;;;;;;;;11.60;99.90;;;;;;7334945;19;109089;-70
2023/04/19 03:52:59;;;;;;;;;;;11.60;99.90;;;;;;7336070;19;110959;-69
2023/04/19 03:55:26;;;;;;;;;;;11.60;99.90;;;;;;7333468;19;108813;-70
2023/04/19 03:57:53;;;;;;;;;;;11.50;99.90;;;;;;7336574;19;109208;-69
2023/04/19 04:00:20;;;;;;;;;;;11.50;99.90;;;;;;7331640;19;110000;-69
2023/04/19 04:02:47;;;;;;;;;;;11.40;99.90;;;;;;7335917;19;109507;-69
2023/04/19 04:05:14;;;;;;;;;;;11.50;99.90;;;;;;7334818;19;109522;-69
2023/04/19 04:07:41;;;;;;;;;;;11.40;99.90;;;;;;7340043;19;109382;-69
2023/04/19 04:10:09;;;;;;;;;;;11.40;99.90;;;;;;7330165;19;112268;-69
2023/04/19 04:12:35;;;;;;;;;;;11.40;99.90;;;;;;7335025;19;110208;-69
2023/04/19 04:15:03;;;;;;;;;;;11.40;99.90;;;;;;7334702;19;110220;-69
2023/04/19 04:17:30;;;;;;;;;;;11.30;99.90;;;;;;7336402;19;109703;-70
2023/04/19 04:19:58;;;;;;;;;;;11.30;99.90;;;;;;7334858;19;109417;-69
2023/04/19 04:22:25;;;;;;;;;;;11.20;99.90;;;;;;7336245;19;113811;-69
2023/04/19 04:24:53;;;;;;;;;;;11.10;99.90;;;;;;7334347;19;109054;-69
2023/04/19 04:27:20;;;;;;;;;;;11.10;99.90;;;;;;7333248;19;111113;-69
2023/04/19 04:29:48;;;;;;;;;;;11.10;99.90;;;;;;7339462;19;108613;-69
2023/04/19 04:32:16;;;;;;;;;;;11.10;99.90;;;;;;7335158;19;111526;-69
2023/04/19 04:34:44;;;;;;;;;;;11.10;99.90;;;;;;7334201;19;108749;-70
2023/04/19 04:37:11;;;;;;;;;;;11.10;99.90;;;;;;7337490;19;109251;-69
2023/04/19 04:39:38;;;;;;;;;;;11.10;99.90;;;;;;7332685;19;110487;-69
2023/04/19 04:42:07;;;;;;;;;;;11.10;99.90;;;;;;7336058;19;108387;-69
2023/04/19 04:44:35;;;;;;;;;;;11.00;99.90;;;;;;7331474;19;108933;-69
2023/04/19 04:47:02;;;;;;;;;;;11.00;99.90;;;;;;7333563;19;111211;-69
2023/04/19 04:49:29;;;;;;;;;;;11.00;99.90;;;;;;7333552;19;109322;-69
2023/04/19 04:51:56;;;;;;;;;;;11.00;99.90;;;;;;7340373;19;109683;-70
2023/04/19 04:54:23;;;;;;;;;;;11.00;99.90;;;;;;7333062;19;108885;-70
2023/04/19 04:56:50;;;;;;;;;;;11.00;99.90;;;;;;7335946;19;112324;-69
2023/04/19 04:59:17;;;;;;;;;;;10.90;99.90;;;;;;7335210;19;109965;-69
2023/04/19 05:01:45;;;;;;;;;;;10.90;99.90;;;;;;7331224;19;108945;-69
2023/04/19 05:04:12;;;;;;;;;;;11.00;99.90;;;;;;7335661;19;109188;-69
2023/04/19 05:06:39;;;;;;;;;;;11.00;99.90;;;;;;7330515;19;110601;-69
2023/04/19 05:09:07;;;;;;;;;;;11.00;99.90;;;;;;7334616;19;109323;-69
2023/04/19 05:11:34;;;;;;;;;;;11.10;99.90;;;;;;7334740;19;108264;-69
2023/04/19 05:14:01;;;;;;;;;;;11.10;99.90;;;;;;7334012;19;109040;-69
2023/04/19 05:16:28;;;;;;;;;;;11.10;99.90;;;;;;7330822;19;108800;-69
2023/04/19 05:18:55;;;;;;;;;;;11.10;99.90;;;;;;7331273;19;110604;-69
2023/04/19 05:21:22;;;;;;;;;;;11.10;99.90;;;;;;7334517;19;110901;-69
2023/04/19 05:23:52;;;;;;;;;;;11.20;99.90;;;;;;7335782;19;109245;-69
2023/04/19 05:26:21;;;;;;;;;;;11.20;99.90;;;;;;7337094;19;109631;-69
2023/04/19 05:28:48;;;;;;;;;;;11.20;99.90;;;;;;7338167;19;109257;-69
2023/04/19 05:31:15;;;;;;;;;;;11.30;99.90;;;;;;7339778;19;109434;-69
2023/04/19 05:33:42;;;;;;;;;;;11.30;99.90;;;;;;7342440;19;113145;-69
2023/04/19 05:36:10;;;;;;;;;;;11.30;99.90;;;;;;7338691;19;108892;-69
2023/04/19 05:38:36;;;;;;;;;;;11.30;99.90;;;;;;7337505;19;110140;-69
2023/04/19 05:41:04;;;;;;;;;;;11.30;99.90;;;;;;7337505;19;109385;-69
2023/04/19 05:43:31;;;;;;;;;;;11.40;99.90;;;;;;7339381;19;109402;-69
2023/04/19 05:45:58;;;;;;;;;;;11.40;99.90;;;;;;7338329;19;108949;-70
2023/04/19 05:48:25;;;;;;;;;;;11.40;99.90;;;;;;7341341;19;108555;-69
2023/04/19 05:50:53;;;;;;;;;;;11.40;99.90;;;;;;7336828;19;111138;-68
2023/04/19 05:53:20;;;;;;;;;;;11.40;99.90;;;;;;7337963;19;109988;-68
2023/04/19 05:55:49;;;;;;;;;;;11.50;99.90;;;;;;7344765;19;108829;-68
2023/04/19 05:58:17;;;;;;;;;;;11.60;99.90;;;;;;7340856;19;109663;-68
2023/04/19 06:00:44;;;;;;;;;;;11.50;99.90;;;;;;7339381;19;108624;-68
2023/04/19 06:03:11;;;;;;;;;;;11.60;99.90;;;;;;7338234;19;111367;-63
2023/04/19 06:05:39;;;;;;;;;;;11.60;99.90;;;;;;7335174;19;109707;-63
2023/04/19 06:08:08;;;;;;;;;;;11.70;99.90;;;;;;7340391;19;109595;-63
2023/04/19 06:10:36;;;;;;;;;;;11.80;99.90;;;;;;7336735;19;109164;-64
2023/04/19 06:13:21;;;;;;;;;;;11.80;99.90;;;;;;7337194;19;110277;-64
2023/04/19 06:15:48;;;;;;;;;;;11.90;99.90;;;;;;7337872;19;108854;-64
2023/04/19 06:18:16;;;;;;;;;;;11.90;99.90;;;;;;7342603;19;108471;-64
2023/04/19 06:20:45;;;;;;;;;;;12.00;99.90;;;;;;7335008;19;108567;-64
2023/04/19 06:23:13;;;;;;;;;;;12.00;99.90;;;;;;7338852;19;108728;-64
2023/04/19 06:25:40;;;;;;;;;;;12.10;99.90;;;;;;7336485;19;109088;-64
2023/04/19 06:28:07;;;;;;;;;;;12.20;99.90;;;;;;7337470;19;108869;-64
2023/04/19 06:30:35;;;;;;;;;;;12.30;99.90;;;;;;7338472;19;108443;-63
2023/04/19 06:33:02;;;;;;;;;;;12.30;99.90;;;;;;7337602;19;109731;-64
2023/04/19 06:35:29;;;;;;;;;;;12.40;99.90;;;;;;7338774;19;109017;-64
2023/04/19 06:37:56;;;;;;;;;;;12.50;99.90;;;;;;7339757;19;108852;-64
2023/04/19 06:40:23;;;;;;;;;;;12.60;99.90;;;;;;7343205;19;110132;-63
2023/04/19 06:42:50;;;;;;;;;;;12.70;99.90;;;;;;7336052;19;111413;-63
2023/04/19 06:45:17;;;;;;;;;;;12.70;99.90;;;;;;7338779;19;110214;-64
2023/04/19 06:47:44;;;;;;;;;;;12.70;99.90;;;;;;7336541;19;108883;-63
2023/04/19 06:50:11;;;;;;;;;;;12.70;99.90;;;;;;7339248;19;108127;-64
2023/04/19 06:52:38;;;;;;;;;;;12.70;99.90;;;;;;7334997;19;109433;-64
2023/04/19 06:55:06;;;;;;;;;;;12.80;99.90;;;;;;7337815;19;108728;-64
2023/04/19 06:57:33;;;;;;;;;;;12.90;99.90;;;;;;7338962;19;108569;-64
2023/04/19 07:00:00;;;;;;;;;;;12.90;99.90;;;;;;7336540;19;109358;-64
2023/04/19 07:02:27;;;;;;;;;;;13.00;99.90;;;;;;7341663;19;109397;-64
2023/04/19 07:04:55;;;;;;;;;;;12.90;99.90;;;;;;7338287;19;109269;-64
2023/04/19 07:07:22;;;;;;;;;;;12.90;99.90;;;;;;7335608;19;108840;-64
2023/04/19 07:09:49;;;;;;;;;;;12.90;99.90;;;;;;7336863;19;109147;-64
2023/04/19 07:12:17;;;;;;;;;;;12.90;99.90;;;;;;7335225;19;110209;-64
2023/04/19 07:14:44;;;;;;;;;;;12.90;99.90;;;;;;7336779;19;108925;-64
2023/04/19 07:17:13;;;;;;;;;;;12.90;99.90;;;;;;7338879;19;108123;-64
2023/04/19 07:19:41;;;;;;;;;;;12.90;99.90;;;;;;7336418;19;109777;-63
2023/04/19 07:22:08;;;;;;;;;;;12.90;99.90;;;;;;7343400;19;108675;-64
2023/04/19 07:24:35;;;;;;;;;;;13.00;99.90;;;;;;7335049;19;113078;-64
2023/04/19 07:27:02;;;;;;;;;;;13.10;99.90;;;;;;7337516;19;108450;-64
2023/04/19 07:29:29;;;;;;;;;;;13.20;99.90;;;;;;7333777;19;108721;-63
2023/04/19 07:31:58;;;;;;;;;;;13.20;99.90;;;;;;7335844;19;109108;-64
2023/04/19 07:34:26;;;;;;;;;;;13.30;99.90;;;;;;7340375;19;109144;-63
2023/04/19 07:36:53;;;;;;;;;;;13.30;99.90;;;;;;7337166;19;108723;-63
2023/04/19 07:39:20;;;;;;;;;;;13.20;99.90;;;;;;7338185;19;108951;-63
2023/04/19 07:41:47;;;;;;;;;;;13.20;99.90;;;;;;7336835;19;109010;-68
2023/04/19 07:44:14;;;;;;;;;;;13.20;99.90;;;;;;7340146;19;108655;-72
2023/04/19 07:46:43;;;;;;;;;;;13.30;99.90;;;;;;7338687;19;109220;-71
2023/04/19 07:49:10;;;;;;;;;;;13.30;99.90;;;;;;7335774;19;109084;-74
2023/04/19 07:51:37;;;;;;;;;;;13.40;99.90;;;;;;7336392;19;110286;-63
2023/04/19 07:54:04;;;;;;;;;;;13.60;99.90;;;;;;7337551;19;108579;-63
2023/04/19 07:56:32;;;;;;;;;;;13.70;99.90;;;;;;7334804;19;108695;-66
2023/04/19 07:58:59;;;;;;;;;;;13.80;99.90;;;;;;7334413;19;109927;-63
2023/04/19 08:01:35;;;;;;;;;;;13.90;99.90;;;;;;7336967;19;108659;-63
2023/04/19 08:04:03;;;;;;;;;;;13.90;99.90;;;;;;7336139;19;110386;-64
2023/04/19 08:06:31;;;;;;;;;;;14.00;99.90;;;;;;7341110;19;109159;-63
2023/04/19 08:08:58;;;;;;;;;;;14.00;99.90;;;;;;7335043;19;109545;-64
2023/04/19 08:11:26;;;;;;;;;;;14.10;99.90;;;;;;7336137;19;110106;-63
2023/04/19 08:13:53;;;;;;;;;;;14.10;99.90;;;;;;7333993;19;108586;-63
2023/04/19 08:16:40;;;;;;;;;;;14.00;99.90;;;;;;7337721;19;110278;-63
2023/04/19 08:19:27;;;;;;;;;;;14.10;99.90;;;;;;7335710;19;111428;-64
2023/04/19 08:21:54;;;;;;;;;;;14.20;99.90;;;;;;7336882;19;109376;-63
2023/04/19 08:24:21;;;;;;;;;;;14.30;99.90;;;;;;7335226;19;108689;-64
2023/04/19 08:26:52;;;;;;;;;;;14.30;99.90;;;;;;7336219;19;109117;-63
2023/04/19 08:29:21;;;;;;;;;;;14.50;99.90;;;;;;7339067;19;113290;-64
2023/04/19 08:31:48;;;;;;;;;;;14.50;99.90;;;;;;7334766;19;110118;-63
2023/04/19 08:34:15;;;;;;;;;;;14.60;99.90;;;;;;7335948;19;109843;-63
2023/04/19 08:36:42;;;;;;;;;;;14.70;99.90;;;;;;7335682;19;108338;-63
2023/04/19 08:39:26;;;;;;;;;;;14.80;99.90;;;;;;7334957;19;109088;-64
2023/04/19 08:42:06;;;;;;;;;;;14.80;99.90;;;;;;7335680;19;109274;-64
2023/04/19 08:44:50;;;;;;;;;;;14.80;99.90;;;;;;7334058;19;109163;-64
2023/04/19 08:47:37;;;;;;;;;;;14.80;99.90;;;;;;7333164;19;109446;-64
2023/04/19 08:50:24;;;;;;;;;;;14.90;99.90;;;;;;7335187;19;108584;-64
2023/04/19 08:53:01;;;;;;;;;;;15.00;99.90;;;;;;7342002;19;108376;-64
2023/04/19 08:55:48;;;;;;;;;;;15.10;99.90;;;;;;7337220;19;108557;-64
2023/04/19 08:58:35;;;;;;;;;;;15.10;99.90;;;;;;7341308;19;110690;-64
2023/04/19 09:01:22;;;;;;;;;;;15.20;99.90;;;;;;7343294;19;112243;-64
2023/04/19 09:04:02;;;;;;;;;;;15.30;99.90;;;;;;7339836;19;108497;-68
2023/04/19 09:06:49;;;;;;;;;;;15.30;99.90;;;;;;7341794;19;110771;-64
2023/04/19 09:09:19;;;;;;;;;;;15.30;99.90;;;;;;7340719;19;109399;-64
2023/04/19 09:12:15;;;;;;;;;;;15.20;99.90;;;;;;7342774;19;108717;-64
2023/04/19 09:14:48;;;;;;;;;;;15.30;99.90;;;;;;7340911;19;108976;-64
2023/04/19 09:17:27;;;;;;;;;;;15.50;99.90;;;;;;7347179;19;109035;-65
2023/04/19 09:19:55;;;;;;;;;;;15.60;99.90;;;;;;7342688;19;109324;-64
2023/04/19 09:22:22;;;;;;;;;;;15.60;99.90;;;;;;7340693;19;109828;-66
2023/04/19 09:24:49;;;;;;;;;;;15.60;99.90;;;;;;7341944;19;108389;-65
2023/04/19 09:27:31;;;;;;;;;;;15.60;99.90;;;;;;7338984;19;108967;-65
2023/04/19 09:30:00;;;;;;;;;;;15.70;99.90;;;;;;7339874;19;109291;-64
2023/04/19 09:32:28;;;;;;;;;;;15.70;99.90;;;;;;7336572;19;109161;-83
2023/04/19 09:34:56;;;;;;;;;;;15.80;99.90;;;;;;7335237;19;112320;-83
2023/04/19 09:37:25;;;;;;;;;;;15.90;99.90;;;;;;7341200;19;111008;-83
2023/04/19 09:40:22;;;;;;;;;;;15.90;99.90;;;;;;7367610;19;110600;-83
2023/04/19 09:42:49;;;;;;;;;;;15.80;99.90;;;;;;7371034;19;109092;-83
2023/04/19 09:45:20;;;;;;;;;;;15.60;99.90;;;;;;7373739;19;109755;-84
2023/04/19 09:48:00;;;;;;;;;;;15.70;99.90;;;;;;7373041;19;110998;-83
2023/04/19 09:50:27;;;;;;;;;;;15.80;99.90;;;;;;7375376;19;112818;-85
2023/04/19 09:52:56;;;;;;;;;;;15.90;99.90;;;;;;7372649;19;107482;-84
2023/04/19 09:55:24;;;;;;;;;;;15.90;99.90;;;;;;7377737;19;108295;-83
2023/04/19 09:57:55;;;;;;;;;;;15.90;99.90;;;;;;7370482;19;111004;-83
2023/04/19 10:00:22;;;;;;;;;;;16.10;99.90;;;;;;7378453;19;108323;-83
2023/04/19 10:02:54;;;;;;;;;;;16.20;99.90;;;;;;7344074;19;109323;-82
2023/04/19 10:05:22;;;;;;;;;;;16.20;99.90;;;;;;7336695;19;111006;-82
2023/04/19 10:07:51;;;;;;;;;;;16.20;99.90;;;;;;7334262;19;111509;-83
2023/04/19 10:10:23;;;;;;;;;;;16.10;99.90;;;;;;7338882;19;110406;-63
2023/04/19 10:13:10;;;;;;;;;;;16.00;99.90;;;;;;7339208;19;108601;-63
2023/04/19 10:15:47;;;;;;;;;;;15.90;99.90;;;;;;7340523;19;108274;-63
2023/04/19 10:18:25;;;;;;;;;;;16.10;99.90;;;;;;7338789;19;109228;-63
2023/04/19 10:20:59;;;;;;;;;;;16.10;99.90;;;;;;7337688;19;108303;-63
2023/04/19 10:23:27;;;;;;;;;;;16.10;99.90;;;;;;7343129;19;109787;-63
2023/04/19 10:25:56;;;;;;;;;;;16.20;99.90;;;;;;7337946;19;108694;-63
2023/04/19 10:28:23;;;;;;;;;;;16.20;99.90;;;;;;7341224;19;109689;-63
2023/04/19 10:31:00;;;;;;;;;;;16.30;99.90;;;;;;7336006;19;109083;-63
2023/04/19 10:33:33;;;;;;;;;;;16.40;99.90;;;;;;7339040;19;108378;-63
2023/04/19 10:36:01;;;;;;;;;;;16.50;99.90;;;;;;7339252;19;111422;-63
2023/04/19 10:38:35;;;;;;;;;;;16.70;99.90;;;;;;7337048;19;110121;-63
2023/04/19 10:41:04;;;;;;;;;;;16.60;99.90;;;;;;7338296;19;110402;-64
2023/04/19 10:43:35;;;;;;;;;;;16.50;99.90;;;;;;7337840;19;109448;-63
2023/04/19 10:46:06;;;;;;;;;;;16.40;99.70;;;;;;7342690;19;109295;-63
2023/04/19 10:48:36;;;;;;;;;;;16.40;99.90;;;;;;7340089;19;108652;-63
2023/04/19 10:51:09;;;;;;;;;;;16.40;99.90;;;;;;7336123;19;109156;-63
2023/04/19 10:53:50;;;;;;;;;;;16.50;99.80;;;;;;7336219;19;108664;-65
2023/04/19 10:56:18;;;;;;;;;;;16.60;99.90;;;;;;7339211;19;110041;-63
2023/04/19 10:59:07;;;;;;;;;;;16.80;99.40;;;;;;7335610;19;109821;-64
2023/04/19 11:01:44;;;;;;;;;;;16.90;98.50;;;;;;7337245;19;108421;-63
2023/04/19 11:04:12;;;;;;;;;;;16.90;98.10;;;;;;7335415;19;111346;-63
2023/04/19 11:06:51;;;;;;;;;;;16.90;99.20;;;;;;7336549;19;110347;-63
2023/04/19 11:09:28;;;;;;;;;;;16.90;96.50;;;;;;7343529;19;108609;-63
2023/04/19 11:12:00;;;;;;;;;;;16.80;96.80;;;;;;7337649;19;110141;-64
2023/04/19 11:14:46;;;;;;;;;;;16.80;97.90;;;;;;7337964;19;108755;-63
2023/04/19 11:17:15;;;;;;;;;;;16.90;96.40;;;;;;7337747;19;108436;-62
2023/04/19 11:19:43;;;;;;;;;;;16.90;97.30;;;;;;7334388;19;109189;-63
2023/04/19 11:22:10;;;;;;;;;;;17.00;97.40;;;;;;7337853;19;109324;-64
2023/04/19 11:24:43;;;;;;;;;;;17.20;95.80;;;;;;7335114;19;108853;-63
2023/04/19 11:27:10;;;;;;;;;;;17.00;96.20;;;;;;7336529;19;109012;-63
2023/04/19 11:29:37;;;;;;;;;;;17.00;95.30;;;;;;7333811;19;108691;-64
2023/04/19 11:32:04;;;;;;;;;;;17.10;95.80;;;;;;7342156;19;109076;-63
2023/04/19 11:34:36;;;;;;;;;;;17.30;94.60;;;;;;7337369;19;110216;-63
2023/04/19 11:37:03;;;;;;;;;;;17.40;94.60;;;;;;7337642;19;108397;-63
2023/04/19 11:39:30;;;;;;;;;;;17.40;94.80;;;;;;7335692;19;109195;-64
2023/04/19 11:41:58;;;;;;;;;;;17.30;94.10;;;;;;7335735;19;110434;-63
2023/04/19 11:44:25;;;;;;;;;;;17.10;93.30;;;;;;7333347;19;109185;-64
2023/04/19 11:47:02;;;;;;;;;;;17.10;92.40;;;;;;7336251;19;110017;-64
2023/04/19 11:49:32;;;;;;;;;;;17.10;93.30;;;;;;7337055;19;108865;-67
2023/04/19 11:52:00;;;;;;;;;;;17.30;93.60;;;;;;7340950;19;108382;-64
2023/04/19 11:54:31;;;;;;;;;;;17.40;91.40;;;;;;7335539;19;108459;-64
2023/04/19 11:57:05;;;;;;;;;;;17.50;91.60;;;;;;7335750;19;109168;-64
2023/04/19 11:59:33;;;;;;;;;;;17.40;91.00;;;;;;7336648;19;109597;-68
2023/04/19 12:02:04;;;;;;;;;;;17.50;91.70;;;;;;7333840;19;108952;-65
2023/04/19 12:04:31;;;;;;;;;;;17.80;91.40;;;;;;7336208;19;108844;-64
2023/04/19 12:06:59;;;;;;;;;;;17.80;92.30;;;;;;7334362;19;110419;-64
2023/04/19 12:09:26;;;;;;;;;;;18.00;91.30;;;;;;7335564;19;109693;-64
2023/04/19 12:11:53;;;;;;;;;;;18.00;91.20;;;;;;7334601;19;110086;-64
2023/04/19 12:14:21;;;;;;;;;;;18.10;91.40;;;;;;7340483;19;109366;-63
2023/04/19 12:17:05;;;;;;;;;;;18.10;89.00;;;;;;7335472;19;108982;-63
2023/04/19 12:19:50;;;;;;;;;;;18.10;89.20;;;;;;7333387;19;108773;-63
2023/04/19 12:22:19;;;;;;;;;;;18.20;88.40;;;;;;7335344;19;109359;-65
2023/04/19 12:24:49;;;;;;;;;;;18.40;87.40;;;;;;7333699;19;108500;-63
2023/04/19 12:27:17;;;;;;;;;;;18.50;87.60;;;;;;7333329;19;111430;-63
2023/04/19 12:29:45;;;;;;;;;;;18.40;83.80;;;;;;7336924;19;109307;-63
2023/04/19 12:32:13;;;;;;;;;;;18.40;83.60;;;;;;7339932;19;108845;-83
2023/04/19 12:34:41;;;;;;;;;;;18.40;80.90;;;;;;7339052;19;109684;-70
2023/04/19 12:37:08;;;;;;;;;;;18.60;82.70;;;;;;7345811;19;108906;-70
2023/04/19 12:39:35;;;;;;;;;;;18.90;81.50;;;;;;7337694;19;109689;-70
2023/04/19 12:42:02;;;;;;;;;;;19.10;82.60;;;;;;7340193;19;109924;-70
2023/04/19 12:44:29;;;;;;;;;;;19.10;76.00;;;;;;7341998;19;109474;-70
2023/04/19 12:46:56;;;;;;;;;;;19.20;75.60;;;;;;7341565;19;109106;-70
2023/04/19 12:49:23;;;;;;;;;;;19.30;78.00;;;;;;7341503;19;109149;-70
2023/04/19 12:51:51;;;;;;;;;;;19.40;78.10;;;;;;7341454;19;109045;-69
2023/04/19 12:54:21;;;;;;;;;;;19.50;75.80;;;;;;7338878;19;110363;-69
2023/04/19 12:56:48;;;;;;;;;;;19.50;78.80;;;;;;7341505;19;108833;-70
2023/04/19 12:59:16;;;;;;;;;;;19.50;77.60;;;;;;7343299;19;108538;-71
2023/04/19 13:01:44;;;;;;;;;;;19.40;73.80;;;;;;7340105;19;108705;-73
2023/04/19 13:04:11;;;;;;;;;;;19.40;78.20;;;;;;7341580;19;111528;-71
2023/04/19 13:06:39;;;;;;;;;;;19.40;75.20;;;;;;7339326;19;109411;-72
2023/04/19 13:09:06;;;;;;;;;;;19.40;75.00;;;;;;7341682;19;109107;-71
2023/04/19 13:11:40;;;;;;;;;;;19.50;73.60;;;;;;7337892;19;109590;-71
2023/04/19 13:14:07;;;;;;;;;;;19.40;73.30;;;;;;7341463;19;109314;-71
2023/04/19 13:16:34;;;;;;;;;;;19.40;74.40;;;;;;7341671;19;108656;-71
2023/04/19 13:19:01;;;;;;;;;;;19.60;73.80;;;;;;7342415;19;110516;-71
2023/04/19 13:21:31;;;;;;;;;;;19.90;76.70;;;;;;7343740;19;109454;-71
2023/04/19 13:23:59;;;;;;;;;;;20.10;70.20;;;;;;7339923;19;109743;-72
2023/04/19 13:26:26;;;;;;;;;;;20.10;72.60;;;;;;7340517;19;110130;-72
2023/04/19 13:28:53;;;;;;;;;;;20.00;71.30;;;;;;7340312;19;109347;-69
2023/04/19 13:31:20;;;;;;;;;;;20.10;72.60;;;;;;7340437;19;109482;-69
2023/04/19 13:33:48;;;;;;;;;;;20.30;73.80;;;;;;7339652;19;110042;-69
2023/04/19 13:36:15;;;;;;;;;;;20.30;71.20;;;;;;7341163;19;108813;-70
2023/04/19 13:38:42;;;;;;;;;;;20.40;72.60;;;;;;7339855;19;109025;-70
2023/04/19 13:41:09;;;;;;;;;;;20.30;70.00;;;;;;7339196;19;112347;-69
2023/04/19 13:43:36;;;;;;;;;;;20.30;71.20;;;;;;7344799;19;109425;-68
2023/04/19 13:46:04;;;;;;;;;;;20.20;68.40;;;;;;7338251;19;109170;-70
2023/04/19 13:48:31;;;;;;;;;;;20.20;69.30;;;;;;7340997;19;108492;-70
2023/04/19 13:50:58;;;;;;;;;;;20.30;70.20;;;;;;7338562;19;111218;-70
2023/04/19 13:53:25;;;;;;;;;;;20.20;70.00;;;;;;7339244;19;110300;-69
2023/04/19 13:55:52;;;;;;;;;;;20.20;69.40;;;;;;7337002;19;108584;-70
2023/04/19 13:58:20;;;;;;;;;;;20.10;67.10;;;;;;7339635;19;108786;-70
2023/04/19 14:00:47;;;;;;;;;;;20.00;69.80;;;;;;7337290;19;109251;-71
2023/04/19 14:03:14;;;;;;;;;;;20.00;65.60;;;;;;7345543;19;109066;-71
2023/04/19 14:05:42;;;;;;;;;;;20.00;65.00;;;;;;7337573;19;109567;-72
2023/04/19 14:08:09;;;;;;;;;;;20.10;67.70;;;;;;7337720;19;108776;-72
2023/04/19 14:10:36;;;;;;;;;;;20.20;65.10;;;;;;7338340;19;108357;-72
2023/04/19 14:13:04;;;;;;;;;;;20.50;66.10;;;;;;7339460;19;109775;-72
2023/04/19 14:15:31;;;;;;;;;;;20.50;65.60;;;;;;7339770;19;108553;-72